Time;durP1;ratioP1;P1;durP2;ratioP2;P2;SDS_P1;SDS_P2;PMS_P1;PMS_P2;Temp;Humidity;BMP_temperature;BMP_pressure;BME280_temperature;BME280_humidity;BME280_pressure;Samples;Min_cycle;Max_cycle;Signal;HPM_P1;HPM_P2
2021/12/03 00:00:51;;;;;;;32.67;17.63;;;20.90;47.70;;;;;;4968624;28;20038;-84
2021/12/03 00:03:17;;;;;;;29.00;16.20;;;20.90;48.90;;;;;;4952636;28;20092;-84
2021/12/03 00:05:43;;;;;;;28.88;17.10;;;21.00;48.40;;;;;;4969749;23;20442;-74
2021/12/03 00:08:09;;;;;;;28.80;16.60;;;21.00;49.20;;;;;;4938074;28;20067;-74
2021/12/03 00:10:37;;;;;;;28.35;15.35;;;21.00;50.20;;;;;;4953420;28;20030;-74
2021/12/03 00:13:04;;;;;;;25.65;14.32;;;21.10;49.90;;;;;;4969029;28;20074;-74
2021/12/03 00:15:30;;;;;;;24.15;14.90;;;21.10;49.60;;;;;;4971306;28;20061;-74
2021/12/03 00:17:56;;;;;;;28.55;14.95;;;21.10;49.80;;;;;;4971732;28;20395;-74
2021/12/03 00:20:24;;;;;;;25.92;14.38;;;21.20;49.80;;;;;;4971386;28;20019;-74
2021/12/03 00:22:53;;;;;;;32.70;14.73;;;21.20;50.20;;;;;;4971835;28;20037;-85
2021/12/03 00:25:18;;;;;;;26.42;13.43;;;21.20;50.30;;;;;;4938484;28;20046;-85
2021/12/03 00:27:45;;;;;;;29.48;13.90;;;21.20;50.50;;;;;;4939489;28;20030;-84
2021/12/03 00:30:12;;;;;;;23.98;13.85;;;21.20;50.80;;;;;;4923463;28;20523;-84
2021/12/03 00:32:39;;;;;;;22.60;13.13;;;21.20;50.90;;;;;;4954773;28;20483;-82
2021/12/03 00:35:08;;;;;;;22.30;12.70;;;21.20;50.90;;;;;;4938556;28;20081;-83
2021/12/03 00:37:34;;;;;;;24.08;12.75;;;21.20;51.30;;;;;;4954333;28;20066;-83
2021/12/03 00:40:00;;;;;;;23.42;12.77;;;21.20;51.10;;;;;;4938758;28;20057;-82
2021/12/03 00:42:28;;;;;;;25.90;13.00;;;21.10;50.90;;;;;;4971867;28;20360;-83
2021/12/03 00:44:55;;;;;;;25.45;12.95;;;21.10;51.10;;;;;;4938851;28;20070;-83
2021/12/03 00:47:23;;;;;;;33.63;13.25;;;21.10;51.20;;;;;;4938807;28;20058;-82
2021/12/03 00:49:49;;;;;;;26.02;12.35;;;21.20;51.60;;;;;;4954409;28;20394;-81
2021/12/03 00:52:15;;;;;;;30.65;12.70;;;21.10;51.80;;;;;;4970795;28;20019;-81
2021/12/03 00:54:42;;;;;;;27.52;12.75;;;21.10;52.00;;;;;;4971312;28;21364;-81
2021/12/03 00:57:09;;;;;;;21.80;12.27;;;21.10;51.80;;;;;;4954321;28;20491;-82
2021/12/03 00:59:35;;;;;;;27.45;12.75;;;21.10;52.10;;;;;;4954887;28;20062;-82
2021/12/03 01:02:01;;;;;;;24.10;11.88;;;21.10;52.10;;;;;;4954599;28;20026;-82
2021/12/03 01:04:27;;;;;;;19.15;11.57;;;21.10;52.00;;;;;;4938791;28;20033;-81
2021/12/03 01:06:52;;;;;;;19.58;10.90;;;21.10;51.90;;;;;;4953548;28;20105;-81
2021/12/03 01:09:20;;;;;;;24.10;11.25;;;21.10;52.00;;;;;;4938279;28;20035;-81
2021/12/03 01:11:47;;;;;;;22.02;11.57;;;21.10;52.00;;;;;;4938789;28;20023;-81
2021/12/03 01:14:12;;;;;;;22.83;11.10;;;21.10;51.90;;;;;;4938200;28;20500;-81
2021/12/03 01:16:38;;;;;;;20.13;11.30;;;21.10;51.90;;;;;;4938313;28;20077;-81
2021/12/03 01:19:04;;;;;;;20.15;11.23;;;21.10;52.00;;;;;;4969449;28;20495;-83
2021/12/03 01:21:30;;;;;;;19.35;10.73;;;21.10;52.00;;;;;;4954399;28;20575;-83
2021/12/03 01:23:56;;;;;;;20.40;11.07;;;21.10;52.00;;;;;;4957455;28;20231;-83
2021/12/03 01:26:23;;;;;;;20.85;10.80;;;21.00;52.00;;;;;;4955322;28;20061;-83
2021/12/03 01:28:49;;;;;;;15.90;9.75;;;21.10;52.00;;;;;;4957622;28;20026;-82
2021/12/03 01:31:17;;;;;;;17.33;10.23;;;21.00;52.00;;;;;;4975017;28;20054;-83
2021/12/03 01:33:45;;;;;;;20.38;9.80;;;21.10;52.10;;;;;;4957484;28;20078;-83
2021/12/03 01:36:11;;;;;;;17.33;9.95;;;21.00;52.10;;;;;;4972594;28;20027;-82
2021/12/03 01:38:37;;;;;;;20.55;9.35;;;21.10;52.10;;;;;;4957794;28;20031;-83
2021/12/03 01:41:03;;;;;;;19.17;9.82;;;21.10;52.10;;;;;;4941708;28;20368;-83
2021/12/03 01:43:29;;;;;;;19.75;9.63;;;21.10;52.10;;;;;;4942223;28;20034;-82
2021/12/03 01:45:58;;;;;;;17.13;10.02;;;21.10;52.00;;;;;;4974491;28;20557;-82
2021/12/03 01:48:24;;;;;;;17.77;9.93;;;21.10;52.00;;;;;;4941371;28;20027;-82
2021/12/03 01:50:51;;;;;;;21.77;10.25;;;21.10;52.00;;;;;;4957442;28;20110;-82
2021/12/03 01:53:20;;;;;;;17.35;10.02;;;21.10;52.00;;;;;;4957678;28;20727;-82
2021/12/03 01:55:47;;;;;;;15.18;8.93;;;21.10;51.90;;;;;;4941101;28;20031;-82
2021/12/03 01:58:13;;;;;;;19.38;9.60;;;21.10;52.20;;;;;;4957677;28;20049;-82
2021/12/03 02:00:51;;;;;;;16.70;9.18;;;21.10;52.10;;;;;;4957271;28;20023;-82
2021/12/03 02:03:18;;;;;;;18.25;9.25;;;21.10;52.20;;;;;;4925729;28;20062;-83
2021/12/03 02:05:45;;;;;;;19.52;8.80;;;21.00;52.30;;;;;;4957226;28;20090;-83
2021/12/03 02:08:11;;;;;;;14.57;8.80;;;21.00;52.30;;;;;;4957707;28;20213;-84
2021/12/03 02:10:38;;;;;;;16.77;8.68;;;21.00;52.30;;;;;;4957317;28;20030;-84
2021/12/03 02:13:04;;;;;;;14.48;8.63;;;21.00;52.20;;;;;;4925661;28;20108;-83
2021/12/03 02:15:30;;;;;;;15.00;8.55;;;21.10;52.30;;;;;;4940558;28;20023;-83
2021/12/03 02:17:56;;;;;;;18.17;9.25;;;21.00;52.40;;;;;;4956457;28;20495;-84
2021/12/03 02:20:23;;;;;;;18.02;8.60;;;21.00;52.30;;;;;;4925689;28;20033;-84
2021/12/03 02:22:49;;;;;;;14.90;8.52;;;21.00;52.40;;;;;;4941343;28;20034;-85
2021/12/03 02:25:21;;;;;;;14.75;8.25;;;21.00;52.30;;;;;;4941086;28;20027;-85
2021/12/03 02:27:49;;;;;;;15.95;8.73;;;21.00;52.50;;;;;;4954673;28;20034;-84
2021/12/03 02:30:16;;;;;;;14.07;8.30;;;21.00;52.40;;;;;;4956817;28;20034;-84
2021/12/03 02:32:41;;;;;;;15.57;8.30;;;21.00;52.30;;;;;;4956711;28;20094;-83
2021/12/03 02:35:08;;;;;;;19.38;8.90;;;21.00;52.40;;;;;;4940680;28;20023;-83
2021/12/03 02:37:34;;;;;;;15.00;8.05;;;21.00;52.60;;;;;;4941414;28;20033;-84
2021/12/03 02:40:00;;;;;;;16.83;8.00;;;21.00;52.70;;;;;;4925055;28;20031;-84
2021/12/03 02:42:26;;;;;;;17.38;8.00;;;21.00;52.60;;;;;;4940394;28;20090;-84
2021/12/03 02:44:52;;;;;;;13.60;7.97;;;21.00;52.60;;;;;;4973430;28;20114;-82
2021/12/03 02:47:18;;;;;;;13.70;8.07;;;21.00;52.60;;;;;;4940611;28;20435;-82
2021/12/03 02:49:44;;;;;;;16.48;7.63;;;21.00;52.80;;;;;;4956755;28;20065;-82
2021/12/03 02:52:13;;;;;;;14.85;7.80;;;21.00;52.60;;;;;;4956489;28;20483;-83
2021/12/03 02:54:38;;;;;;;14.30;7.50;;;21.00;52.80;;;;;;4940169;28;20030;-82
2021/12/03 02:57:07;;;;;;;14.88;7.95;;;20.90;52.50;;;;;;4953738;28;20019;-82
2021/12/03 02:59:33;;;;;;;15.40;7.50;;;21.00;52.50;;;;;;4940252;28;20462;-82
2021/12/03 03:02:01;;;;;;;14.93;6.55;;;21.00;52.60;;;;;;4956500;28;20034;-82
2021/12/03 03:04:26;;;;;;;13.20;6.93;;;21.00;52.80;;;;;;4956480;28;20034;-83
2021/12/03 03:06:53;;;;;;;16.92;7.22;;;21.00;52.60;;;;;;4955903;28;20078;-83
2021/12/03 03:09:19;;;;;;;16.05;7.40;;;21.00;52.60;;;;;;4955227;28;20122;-83
2021/12/03 03:11:44;;;;;;;13.23;6.90;;;21.00;52.40;;;;;;4940302;28;20122;-83
2021/12/03 03:14:10;;;;;;;13.60;6.57;;;21.00;52.40;;;;;;4956067;28;20708;-83
2021/12/03 03:16:36;;;;;;;15.05;6.95;;;21.00;52.30;;;;;;4973048;28;20407;-82
2021/12/03 03:19:20;;;;;;;11.93;6.55;;;21.00;52.40;;;;;;4939712;28;20110;-82
2021/12/03 03:21:46;;;;;;;13.48;6.97;;;21.00;52.50;;;;;;4973157;28;20031;-82
2021/12/03 03:24:12;;;;;;;12.98;7.07;;;21.00;52.60;;;;;;4972970;28;20546;-82
2021/12/03 03:26:40;;;;;;;13.20;6.60;;;21.00;52.70;;;;;;4955691;28;20039;-82
2021/12/03 03:29:10;;;;;;;12.88;6.70;;;21.00;52.60;;;;;;4939850;28;20080;-81
2021/12/03 03:31:37;;;;;;;14.93;6.68;;;20.90;52.60;;;;;;4972877;28;20023;-82
2021/12/03 03:34:04;;;;;;;13.00;7.07;;;21.00;52.70;;;;;;4971733;28;20567;-83
2021/12/03 03:36:34;;;;;;;11.70;6.10;;;21.00;52.80;;;;;;4955208;28;20094;-82
2021/12/03 03:39:00;;;;;;;12.68;6.30;;;21.00;52.70;;;;;;4937954;28;20019;-83
2021/12/03 03:41:26;;;;;;;13.38;6.25;;;20.90;52.70;;;;;;4956023;28;20082;-83
2021/12/03 03:43:52;;;;;;;11.75;6.30;;;21.00;53.00;;;;;;4955118;28;20490;-82
2021/12/03 03:46:18;;;;;;;12.88;6.20;;;21.00;52.80;;;;;;4922589;28;20027;-82
2021/12/03 03:48:43;;;;;;;11.63;6.35;;;20.90;53.00;;;;;;4955405;28;20387;-82
2021/12/03 03:51:12;;;;;;;13.43;5.88;;;20.90;53.10;;;;;;4972647;28;20392;-82
2021/12/03 03:53:40;;;;;;;14.98;6.32;;;20.90;53.10;;;;;;4954698;28;20035;-83
2021/12/03 03:56:07;;;;;;;9.95;5.85;;;20.90;53.00;;;;;;4938947;28;20026;-82
2021/12/03 03:58:32;;;;;;;12.07;6.13;;;20.90;52.70;;;;;;4940018;28;20046;-82
2021/12/03 04:00:58;;;;;;;11.63;6.15;;;20.90;53.20;;;;;;4958842;28;20035;-84
2021/12/03 04:03:24;;;;;;;11.88;6.10;;;20.90;53.10;;;;;;4944032;28;20042;-85
2021/12/03 04:05:50;;;;;;;12.52;5.80;;;20.90;53.00;;;;;;4958893;28;20030;-85
2021/12/03 04:08:16;;;;;;;9.90;5.72;;;20.90;53.00;;;;;;4976083;28;20031;-83
2021/12/03 04:10:42;;;;;;;10.68;5.43;;;20.90;53.10;;;;;;4956581;28;20038;-82
2021/12/03 04:13:08;;;;;;;13.25;5.97;;;20.90;53.10;;;;;;4939570;28;20035;-83
2021/12/03 04:15:33;;;;;;;14.18;6.10;;;20.90;53.10;;;;;;4938738;28;20034;-83
2021/12/03 04:17:59;;;;;;;10.88;5.90;;;20.90;53.10;;;;;;4971967;28;20081;-83
2021/12/03 04:20:25;;;;;;;13.50;5.95;;;20.90;53.10;;;;;;4954923;28;20027;-83
2021/12/03 04:22:52;;;;;;;13.07;5.95;;;20.90;53.20;;;;;;4954706;28;20031;-83
2021/12/03 04:25:21;;;;;;;11.25;5.85;;;20.90;53.90;;;;;;4971942;28;20023;-83
2021/12/03 04:27:50;;;;;;;9.20;4.80;;;20.90;53.40;;;;;;4970981;28;20023;-83
2021/12/03 04:30:23;;;;;;;10.55;5.68;;;20.90;53.20;;;;;;4954459;28;20519;-83
2021/12/03 04:32:50;;;;;;;11.93;5.72;;;20.90;53.10;;;;;;4953055;28;20659;-83
2021/12/03 04:35:16;;;;;;;10.75;5.75;;;20.90;53.10;;;;;;4938266;28;20031;-82
2021/12/03 04:37:42;;;;;;;10.80;5.53;;;20.90;53.30;;;;;;4938871;28;20029;-83
2021/12/03 04:40:10;;;;;;;11.23;5.53;;;20.90;53.10;;;;;;4938402;28;20418;-83
2021/12/03 04:42:37;;;;;;;10.40;5.38;;;20.90;53.40;;;;;;4937541;28;20492;-82
2021/12/03 04:45:06;;;;;;;12.25;5.78;;;20.90;53.20;;;;;;4938477;28;20041;-84
2021/12/03 04:47:32;;;;;;;10.25;5.10;;;20.90;53.30;;;;;;4954657;28;20550;-84
2021/12/03 04:49:58;;;;;;;8.57;5.18;;;20.90;53.10;;;;;;4954591;28;20106;-83
2021/12/03 04:52:24;;;;;;;8.95;5.15;;;20.90;53.20;;;;;;4923529;28;20536;-83
2021/12/03 04:54:51;;;;;;;8.93;4.95;;;20.90;53.30;;;;;;4938517;28;20031;-83
2021/12/03 04:57:17;;;;;;;11.30;5.13;;;20.90;53.10;;;;;;4955294;28;20026;-83
2021/12/03 04:59:42;;;;;;;10.07;5.22;;;20.90;53.30;;;;;;4974875;28;20037;-83
2021/12/03 05:02:08;;;;;;;8.63;5.05;;;20.90;53.20;;;;;;4958198;28;20434;-82
2021/12/03 05:04:38;;;;;;;10.45;5.20;;;20.90;53.10;;;;;;4958053;28;20026;-82
2021/12/03 05:09:36;;;;;;;8.57;4.90;;;20.90;53.30;;;;;;4958317;28;20077;-82
2021/12/03 05:12:02;;;;;;;11.73;5.22;;;20.80;53.20;;;;;;4926496;28;20031;-82
2021/12/03 05:14:28;;;;;;;9.82;4.88;;;20.90;53.20;;;;;;4941762;28;20027;-82
2021/12/03 05:16:55;;;;;;;10.52;5.00;;;20.80;53.30;;;;;;4971158;28;20042;-82
2021/12/03 05:19:21;;;;;;;9.25;4.70;;;20.80;53.60;;;;;;4958095;28;20846;-83
2021/12/03 05:21:47;;;;;;;7.32;4.38;;;20.80;53.10;;;;;;4942285;28;20054;-83
2021/12/03 05:24:13;;;;;;;7.30;4.32;;;20.90;53.40;;;;;;4927391;28;20055;-84
2021/12/03 05:26:40;;;;;;;8.38;4.45;;;20.80;53.30;;;;;;4934970;28;20030;-85
2021/12/03 05:29:07;;;;;;;8.73;4.70;;;20.90;53.30;;;;;;4949403;28;20039;-84
2021/12/03 05:31:35;;;;;;;10.90;4.53;;;20.90;53.10;;;;;;4957198;28;20030;-84
2021/12/03 05:34:02;;;;;;;8.45;4.50;;;20.80;53.60;;;;;;4942609;28;20071;-84
2021/12/03 05:36:28;;;;;;;6.95;4.07;;;20.80;53.00;;;;;;4942124;28;20027;-84
2021/12/03 05:38:53;;;;;;;12.73;5.07;;;20.80;53.20;;;;;;4941970;28;20023;-83
2021/12/03 05:41:19;;;;;;;9.35;4.65;;;20.80;53.20;;;;;;4958018;28;20049;-84
2021/12/03 05:43:45;;;;;;;8.38;4.40;;;20.90;53.00;;;;;;4958141;28;20082;-83
2021/12/03 05:46:11;;;;;;;8.30;4.82;;;20.80;53.10;;;;;;4957538;28;20042;-83
2021/12/03 05:48:37;;;;;;;9.48;4.72;;;20.80;52.90;;;;;;4941373;28;20396;-85
2021/12/03 05:51:03;;;;;;;11.85;5.07;;;20.90;52.80;;;;;;4957125;28;20034;-81
2021/12/03 05:53:28;;;;;;;15.85;5.00;;;20.90;53.70;;;;;;4941767;28;20418;-82
2021/12/03 05:55:54;;;;;;;18.58;4.30;;;20.90;53.70;;;;;;4958938;28;20086;-89
2021/12/03 05:58:20;;;;;;;22.05;5.38;;;20.90;53.10;;;;;;4943307;28;20652;-86
2021/12/03 06:00:47;;;;;;;12.02;4.20;;;21.00;52.90;;;;;;4942368;28;20065;-86
2021/12/03 06:03:14;;;;;;;10.18;4.47;;;20.90;53.60;;;;;;4942273;28;20548;-85
2021/12/03 06:05:40;;;;;;;9.35;4.00;;;20.90;53.30;;;;;;4954514;28;20031;-86
2021/12/03 06:08:06;;;;;;;10.13;5.00;;;20.90;53.40;;;;;;4957612;28;20031;-86
2021/12/03 06:10:33;;;;;;;11.75;4.45;;;20.90;53.40;;;;;;4926279;28;20031;-87
2021/12/03 06:12:59;;;;;;;14.88;4.72;;;20.90;53.50;;;;;;4926268;28;20148;-85
2021/12/03 06:15:26;;;;;;;9.55;4.20;;;20.90;53.70;;;;;;4957329;28;20467;-84
2021/12/03 06:17:52;;;;;;;9.35;4.43;;;20.90;53.70;;;;;;4925539;28;20428;-85
2021/12/03 06:20:19;;;;;;;13.23;4.53;;;20.90;53.60;;;;;;4922004;28;20031;-84
2021/12/03 06:22:45;;;;;;;9.13;4.50;;;20.90;53.60;;;;;;4956360;28;20037;-83
2021/12/03 06:25:12;;;;;;;12.40;4.75;;;20.90;53.80;;;;;;4974200;28;20401;-83
2021/12/03 06:27:39;;;;;;;10.35;4.65;;;20.80;53.70;;;;;;4941258;28;20057;-84
2021/12/03 06:30:09;;;;;;;9.13;4.60;;;20.80;53.50;;;;;;4925415;28;20023;-83
2021/12/03 06:32:36;;;;;;;8.75;3.83;;;20.80;53.80;;;;;;4957523;28;20026;-83
2021/12/03 06:35:02;;;;;;;11.25;4.55;;;20.80;54.00;;;;;;4925287;28;20130;-83
2021/12/03 06:37:28;;;;;;;8.75;4.60;;;20.80;53.90;;;;;;4922600;28;20038;-84
2021/12/03 06:39:54;;;;;;;11.43;5.10;;;20.80;53.70;;;;;;4941246;28;20027;-84
2021/12/03 06:42:20;;;;;;;6.82;4.13;;;20.80;53.80;;;;;;4926212;28;20039;-84
2021/12/03 06:44:45;;;;;;;12.73;4.30;;;20.80;53.90;;;;;;4957261;28;20033;-84
2021/12/03 06:47:11;;;;;;;11.38;4.28;;;20.80;54.50;;;;;;4958228;28;20047;-85
2021/12/03 06:49:37;;;;;;;10.38;4.72;;;20.80;53.80;;;;;;4941528;28;20392;-84
2021/12/03 06:52:07;;;;;;;9.43;4.60;;;20.80;53.90;;;;;;4955588;28;20502;-85
2021/12/03 06:54:33;;;;;;;10.13;4.28;;;20.80;53.80;;;;;;4940724;28;20034;-85
2021/12/03 06:57:01;;;;;;;9.05;4.45;;;20.80;53.90;;;;;;4925049;28;20715;-85
2021/12/03 06:59:27;;;;;;;12.88;4.18;;;20.80;53.90;;;;;;4925082;28;20023;-84
2021/12/03 07:01:53;;;;;;;10.85;4.30;;;20.80;53.90;;;;;;4956862;28;20030;-88
2021/12/03 07:04:20;;;;;;;12.15;4.45;;;20.80;53.90;;;;;;4943237;28;20105;-88
2021/12/03 07:06:47;;;;;;;8.57;4.60;;;20.80;54.00;;;;;;4922221;29;20412;-88
2021/12/03 07:09:13;;;;;;;7.35;3.97;;;20.80;53.80;;;;;;4929952;29;20116;-86
2021/12/03 07:11:39;;;;;;;10.07;4.65;;;20.80;53.70;;;;;;4939753;29;20031;-86
2021/12/03 07:14:05;;;;;;;8.90;3.70;;;20.80;53.80;;;;;;4945934;28;20029;-86
2021/12/03 07:16:31;;;;;;;14.15;4.50;;;20.80;53.90;;;;;;4940984;28;20093;-72
2021/12/03 07:18:57;;;;;;;19.88;4.50;;;20.80;53.20;;;;;;4973973;28;20027;-75
2021/12/03 07:21:24;;;;;;;11.18;4.07;;;20.60;46.30;;;;;;4973195;28;20507;-75
2021/12/03 07:23:50;;;;;;;11.10;4.05;;;20.30;43.70;;;;;;4974898;28;20114;-87
2021/12/03 07:26:17;;;;;;;11.23;4.22;;;20.20;41.80;;;;;;4928050;29;20035;-87
2021/12/03 07:28:44;;;;;;;9.75;3.70;;;20.20;43.30;;;;;;4938960;29;20035;-86
2021/12/03 07:31:11;;;;;;;9.07;3.45;;;20.20;44.50;;;;;;4953918;28;20027;-85
2021/12/03 07:33:37;;;;;;;8.73;3.50;;;20.30;45.20;;;;;;4953952;28;20031;-84
2021/12/03 07:36:05;;;;;;;10.27;3.45;;;20.40;46.60;;;;;;4954235;28;20027;-84
2021/12/03 07:38:31;;;;;;;14.98;3.45;;;20.40;45.90;;;;;;4953781;29;20027;-83
2021/12/03 07:40:57;;;;;;;9.38;3.47;;;20.40;46.60;;;;;;4936561;28;20043;-84
2021/12/03 07:43:23;;;;;;;10.68;3.45;;;20.50;46.60;;;;;;4963522;28;20400;-82
2021/12/03 07:45:49;;;;;;;8.40;2.97;;;20.50;46.80;;;;;;4925015;29;20053;-80
2021/12/03 07:48:21;;;;;;;7.43;2.90;;;20.50;47.50;;;;;;4955355;28;20535;-85
2021/12/03 07:50:47;;;;;;;13.23;2.72;;;20.50;46.90;;;;;;4938162;29;20056;-85
2021/12/03 07:53:16;;;;;;;8.95;3.30;;;20.50;46.90;;;;;;4969792;28;20499;-84
2021/12/03 07:55:43;;;;;;;7.93;2.70;;;20.50;47.30;;;;;;4969555;28;20063;-85
2021/12/03 07:58:15;;;;;;;11.90;3.58;;;20.50;47.20;;;;;;4931158;29;20051;-84
2021/12/03 08:00:44;;;;;;;8.68;2.90;;;20.50;47.50;;;;;;4937055;29;20059;-85
2021/12/03 08:03:11;;;;;;;9.55;3.50;;;20.50;46.90;;;;;;4921146;29;20054;-84
2021/12/03 08:05:39;;;;;;;7.43;2.90;;;20.60;47.10;;;;;;4921001;29;20456;-84
2021/12/03 08:08:06;;;;;;;7.13;3.28;;;20.60;47.50;;;;;;4954182;28;20033;-84
2021/12/03 08:10:35;;;;;;;10.38;2.90;;;20.60;47.60;;;;;;4956479;28;20030;-84
2021/12/03 08:13:04;;;;;;;8.52;2.85;;;20.60;48.00;;;;;;4955323;28;20023;-84
2021/12/03 08:15:30;;;;;;;9.27;3.20;;;20.60;48.50;;;;;;4952809;28;20028;-85
2021/12/03 08:17:56;;;;;;;10.40;3.20;;;20.60;48.90;;;;;;4936991;29;20074;-84
2021/12/03 08:20:21;;;;;;;10.98;2.90;;;20.60;48.60;;;;;;4921423;29;20035;-83
2021/12/03 08:22:49;;;;;;;14.05;3.45;;;20.60;49.10;;;;;;4936676;29;20031;-85
2021/12/03 08:25:15;;;;;;;6.22;2.70;;;20.60;48.50;;;;;;4936572;29;20034;-86
2021/12/03 08:27:41;;;;;;;8.45;2.83;;;20.60;48.70;;;;;;4937382;29;20412;-86
2021/12/03 08:30:10;;;;;;;5.85;2.58;;;20.60;48.80;;;;;;4923263;29;20027;-87
2021/12/03 08:32:36;;;;;;;8.00;2.70;;;20.60;49.00;;;;;;4906049;29;20042;-85
2021/12/03 08:35:03;;;;;;;7.20;2.90;;;20.60;49.00;;;;;;4952955;28;20377;-86
2021/12/03 08:37:29;;;;;;;5.90;2.40;;;20.60;49.20;;;;;;4921475;29;20139;-86
2021/12/03 08:39:55;;;;;;;8.00;2.63;;;20.70;49.20;;;;;;4921447;29;20539;-85
2021/12/03 08:42:21;;;;;;;6.53;2.55;;;20.70;49.30;;;;;;4921898;29;20043;-86
2021/12/03 08:44:47;;;;;;;5.88;2.45;;;20.70;49.60;;;;;;4936133;28;20038;-87
2021/12/03 08:47:13;;;;;;;4.93;2.13;;;20.60;49.40;;;;;;4928455;29;20094;-86
2021/12/03 08:49:46;;;;;;;7.15;2.53;;;20.70;49.50;;;;;;4937239;29;20031;-87
2021/12/03 08:54:52;;;;;;;7.50;2.47;;;20.70;49.90;;;;;;4956550;28;20027;-87
2021/12/03 08:57:22;;;;;;;5.55;2.13;;;20.70;49.70;;;;;;4939970;28;20063;-85
2021/12/03 08:59:49;;;;;;;8.38;2.33;;;20.70;49.80;;;;;;4956302;28;20102;-85
2021/12/03 09:02:15;;;;;;;10.55;2.53;;;20.70;50.00;;;;;;4935722;29;20058;-84
2021/12/03 09:04:41;;;;;;;6.60;2.58;;;20.70;50.00;;;;;;4965648;28;20080;-88
2021/12/03 09:07:07;;;;;;;9.55;2.30;;;20.70;50.10;;;;;;4941622;28;20039;-80
2021/12/03 09:09:33;;;;;;;15.18;2.80;;;20.70;50.70;;;;;;4968792;28;20063;-80
2021/12/03 09:11:59;;;;;;;13.00;2.60;;;20.70;50.60;;;;;;4967807;28;20051;-80
2021/12/03 09:14:40;;;;;;;8.18;3.40;;;20.60;47.70;;;;;;4953322;29;20062;-82
2021/12/03 09:20:05;;;;;;;8.30;3.20;;;20.00;39.50;;;;;;4962656;28;20047;-77
2021/12/03 09:25:12;;;;;;;8.73;3.03;;;19.80;37.80;;;;;;4949301;28;20042;-76
2021/12/03 09:27:40;;;;;;;13.60;3.40;;;19.70;38.00;;;;;;4955432;28;20031;-76
2021/12/03 09:30:09;;;;;;;7.00;2.60;;;19.80;38.80;;;;;;4972204;28;20030;-76
2021/12/03 09:32:35;;;;;;;7.35;2.20;;;19.90;39.70;;;;;;4970530;28;20126;-76
2021/12/03 09:35:03;;;;;;;3.42;2.00;;;20.00;40.80;;;;;;4953033;28;20115;-77
2021/12/03 09:37:28;;;;;;;7.10;2.22;;;20.10;41.60;;;;;;4953369;29;20023;-76
2021/12/03 09:39:56;;;;;;;11.88;2.08;;;20.10;41.60;;;;;;4967120;28;20591;-77
2021/12/03 09:42:22;;;;;;;7.80;2.38;;;20.20;42.40;;;;;;4970861;28;20555;-75
2021/12/03 09:44:51;;;;;;;10.50;2.00;;;20.30;43.10;;;;;;4974520;28;20122;-76
2021/12/03 09:47:19;;;;;;;9.95;1.90;;;20.30;43.30;;;;;;4976039;28;20031;-80
2021/12/03 09:49:54;;;;;;;5.07;2.05;;;20.40;43.70;;;;;;4975572;28;20035;-80
2021/12/03 09:52:29;;;;;;;4.50;1.90;;;20.40;43.90;;;;;;4975053;28;20098;-80
2021/12/03 09:55:03;;;;;;;6.72;2.08;;;20.40;43.50;;;;;;4975601;28;20045;-80
2021/12/03 09:57:37;;;;;;;4.63;1.90;;;20.40;44.10;;;;;;4975852;28;20026;-79
2021/12/03 10:00:14;;;;;;;4.28;2.10;;;20.40;44.30;;;;;;4958687;28;20037;-79
2021/12/03 10:23:17;;;;;;;7.88;2.58;;;20.60;46.40;;;;;;4931810;28;20038;-87
2021/12/03 10:41:19;;;;;;;7.45;2.47;;;20.60;47.50;;;;;;4942332;28;20110;-86
2021/12/03 10:46:48;;;;;;;6.38;2.25;;;20.60;48.10;;;;;;4969207;28;20030;-85
2021/12/03 10:55:05;;;;;;;10.45;2.38;;;20.60;48.50;;;;;;4993982;28;20026;-83
2021/12/03 10:58:24;;;;;;;8.85;2.40;;;20.60;48.50;;;;;;4942346;28;20396;-76
2021/12/03 11:12:09;;;;;;;11.82;3.90;;;20.80;50.50;;;;;;4983730;28;20031;-75
2021/12/03 11:17:33;;;;;;;13.10;4.47;;;20.80;50.80;;;;;;4969445;28;20023;-75
2021/12/03 11:28:22;;;;;;;15.82;4.70;;;20.90;50.10;;;;;;4974335;28;20113;-75
2021/12/03 11:30:51;;;;;;;15.75;4.32;;;20.80;51.40;;;;;;4980162;28;20027;-76
2021/12/03 11:36:39;;;;;;;8.82;3.28;;;20.80;51.10;;;;;;4972234;28;20083;-77
2021/12/03 12:08:52;;;;;;;24.58;14.88;;;19.90;39.40;;;;;;4982374;28;20498;-76
2021/12/03 12:32:10;;;;;;;20.17;10.50;;;20.40;44.70;;;;;;4980586;28;20110;-76
2021/12/03 13:08:01;;;;;;;16.27;8.77;;;20.50;46.80;;;;;;4962135;28;20118;-75
2021/12/03 13:13:38;;;;;;;21.95;8.68;;;20.50;46.90;;;;;;4989840;28;20085;-76
2021/12/03 13:25:03;;;;;;;15.73;8.35;;;20.50;47.70;;;;;;4981453;28;20090;-75
2021/12/03 13:34:06;;;;;;;21.35;8.10;;;20.60;48.20;;;;;;4978673;28;20414;-75
2021/12/03 13:43:53;;;;;;;18.73;8.27;;;20.60;48.50;;;;;;4987472;28;20117;-75
2021/12/03 14:12:19;;;;;;;18.30;7.80;;;20.60;48.80;;;;;;4960355;28;20096;-76
2021/12/03 14:24:47;;;;;;;21.45;7.35;;;20.70;49.10;;;;;;4978837;28;20041;-76
2021/12/03 14:39:04;;;;;;;22.80;9.45;;;20.50;46.50;;;;;;4966612;28;20030;-76
2021/12/03 14:44:25;;;;;;;25.17;8.73;;;20.60;49.00;;;;;;4957554;28;20039;-75
2021/12/03 14:55:48;;;;;;;17.23;8.10;;;20.70;51.70;;;;;;4981112;28;20134;-75
2021/12/03 14:58:27;;;;;;;19.40;7.30;;;20.70;51.40;;;;;;4983931;28;20537;-75
2021/12/03 15:00:59;;;;;;;20.85;6.95;;;20.70;53.60;;;;;;4985971;28;20605;-74
2021/12/03 15:04:02;;;;;;;29.58;7.88;;;20.60;51.70;;;;;;4960588;28;20033;-75
2021/12/03 15:06:38;;;;;;;17.63;7.07;;;20.60;52.70;;;;;;4984493;28;20030;-75
2021/12/03 15:09:14;;;;;;;17.20;7.00;;;20.60;52.10;;;;;;4968695;28;20033;-75
2021/12/03 15:12:01;;;;;;;12.45;6.10;;;20.60;52.00;;;;;;4976380;28;20100;-73
2021/12/03 15:18:10;;;;;;;19.90;6.70;;;20.60;50.70;;;;;;4978126;28;20487;-74
2021/12/03 15:22:52;;;;;;;14.25;6.75;;;20.40;49.00;;;;;;4942181;28;20506;-81
2021/12/03 15:25:33;;;;;;;16.35;7.43;;;20.10;47.30;;;;;;4954138;29;20499;-75
2021/12/03 15:30:51;;;;;;;15.98;6.63;;;20.10;45.90;;;;;;4955186;29;20099;-75
2021/12/03 15:33:26;;;;;;;14.50;6.70;;;20.10;45.40;;;;;;4961963;28;20111;-74
2021/12/03 15:36:05;;;;;;;19.65;7.60;;;20.10;45.80;;;;;;4956484;28;20026;-75
2021/12/03 15:39:07;;;;;;;18.20;7.78;;;20.20;47.30;;;;;;4957236;28;20472;-75
2021/12/03 15:51:50;;;;;;;15.68;7.38;;;20.30;47.90;;;;;;4973521;28;20031;-75
2021/12/03 15:53:36;;;;;;;17.27;8.05;;;20.60;52.30;;;;;;4955024;28;20086;-77
2021/12/03 15:58:29;;;;;;;17.42;7.05;;;20.60;53.20;;;;;;4954480;29;20019;-78
2021/12/03 16:06:45;;;;;;;29.05;8.75;;;20.60;48.70;;;;;;4954184;28;20411;-76
2021/12/03 16:09:30;;;;;;;19.92;9.52;;;20.50;49.80;;;;;;4937801;29;20031;-76
2021/12/03 16:12:14;;;;;;;21.33;9.27;;;20.50;49.50;;;;;;4954517;29;20117;-76
2021/12/03 16:14:56;;;;;;;26.13;9.32;;;20.50;50.30;;;;;;4953685;29;20029;-75
2021/12/03 16:17:42;;;;;;;22.58;9.18;;;20.50;50.20;;;;;;4953818;29;20110;-76
2021/12/03 16:23:04;;;;;;;18.65;7.63;;;20.50;50.20;;;;;;4954152;29;20053;-77
2021/12/03 16:26:04;;;;;;;16.85;7.60;;;20.50;49.70;;;;;;4953780;29;20039;-77
2021/12/03 16:53:29;;;;;;;19.77;8.00;;;20.60;52.10;;;;;;4958757;28;20033;-76
2021/12/03 16:58:28;;;;;;;19.50;8.68;;;20.60;52.10;;;;;;4960240;29;20110;-76
2021/12/03 17:51:25;;;;;;;19.27;8.52;;;20.50;51.80;;;;;;4942655;29;20111;-77
2021/12/03 17:54:10;;;;;;;19.20;8.50;;;20.50;52.70;;;;;;4959565;29;20484;-77
2021/12/03 17:56:41;;;;;;;21.38;8.75;;;20.50;53.20;;;;;;4959159;28;20035;-76
2021/12/03 17:59:15;;;;;;;18.20;8.43;;;20.50;52.50;;;;;;4926339;29;20492;-77
2021/12/03 18:04:23;;;;;;;18.98;8.43;;;20.50;52.80;;;;;;4957270;28;20440;-77
2021/12/03 18:07:11;;;;;;;18.50;8.00;;;20.60;52.30;;;;;;4956200;29;20038;-77
2021/12/03 18:09:48;;;;;;;21.65;8.05;;;20.50;51.90;;;;;;4956451;29;20440;-77
2021/12/03 18:18:05;;;;;;;16.15;7.65;;;20.50;52.20;;;;;;4956429;28;20152;-77
2021/12/03 18:45:44;;;;;;;18.35;7.93;;;20.50;51.40;;;;;;4954843;29;20027;-77
2021/12/03 18:48:29;;;;;;;14.77;7.00;;;20.50;51.40;;;;;;4955732;29;20055;-77
2021/12/03 18:53:58;;;;;;;15.82;7.40;;;20.40;51.80;;;;;;4955236;29;20027;-77
2021/12/03 18:56:41;;;;;;;16.13;7.00;;;20.50;51.80;;;;;;4954969;29;20035;-77
2021/12/03 18:59:08;;;;;;;14.20;6.95;;;20.50;51.90;;;;;;4955405;29;20023;-77
2021/12/03 19:01:35;;;;;;;14.50;6.88;;;20.40;51.60;;;;;;4955193;29;20023;-77
2021/12/03 19:06:30;;;;;;;15.95;6.95;;;20.40;51.70;;;;;;4955370;29;20042;-77
2021/12/03 19:09:02;;;;;;;15.07;6.85;;;20.50;51.90;;;;;;4938846;29;20031;-77
2021/12/03 19:11:34;;;;;;;16.58;7.28;;;20.40;52.10;;;;;;4955403;29;20511;-77
2021/12/03 19:14:00;;;;;;;15.25;6.93;;;20.50;52.20;;;;;;4955170;29;20027;-77
2021/12/03 19:16:26;;;;;;;13.90;7.05;;;20.40;51.80;;;;;;4953565;28;20119;-78
2021/12/03 19:18:56;;;;;;;14.43;7.20;;;20.40;51.70;;;;;;4937945;29;20047;-77
2021/12/03 19:21:28;;;;;;;15.98;7.38;;;20.40;51.70;;;;;;4938321;29;20039;-78